Marshall Don Hunter Sr Airport Marshall US
ICAO: PADM
IATA:
Category: Medium
Scheduled Services:

Elevation: 103 ft
TransAlt. 18000 ft.

Airport Communications:
ANCHORAGE CNTR:132.3
CTAF:122.9
ST MARYS RDO:124

PADM Zoom In..

If you have problems with the map follow the link
https://www.worldairports.se/pages/airport.php?
ICAO=PADM

Runways:

(A) RW 07 length 3200 ft width 100 ft
---- / hdg 70

(B) RW 25 length 3200 ft width 100 ft
---- / hdg 250

Location; PADM
Day. 18 / Time. 02.02 Zulu
* Altimeter: 29.57
* Temperature: -03° c. -26.6°f.
* Wind from: 230° Speed 14 kn.
Dewpoint: -06° c.
Visibility: 9 Statute Miles.
Clouds: Overcast 1100 ft.
Conditions: Light Snow.

PADM 180202Z AUTO 23014KT 9SM -SN OVC011 M03/M06 A2957 RMK AO2 WSHFT 0007 UPB0100012301000104E0100012301000114B0100012301000134E01000123010 00144B01000114E01000117RAB0100012301000114E01000114SNB01000117 SL


Wind From 230°
Speed 14 kn.

 
 
jpsmedia.com for Web Design worldairports.se 2019   terms of use